East Kilbride, United Kingdom
Current Conditions -  °F | °C
As of 10:50 AM on Monday 20 Oct 2014 (Local Time) from EGPF Reporting Station
Overcast Overcast  
Wind Chill: 11°   Ceiling: 900
Heat Index: 11°   Visibility: 6mi
Dew Point: 10°   Wind: 13mph
Humidity: 94%   Direction: 230°SW
Pressure: 29.74"   Gusts: NA
Location:  55.77°N, 4.18°W
Report Text: EGPF 200950Z AUTO 23011KT 9999 BKN009 BKN022 OVC036 11/10 Q1007 REDZ
Loading
Personal Weather Stations






























Interactive Weather Map
Tropical Storm Tracking
New forecast layout! Learn more

10-Day Weather Forecast

Advertisements
Track Severe Weather on mobile